Terminal Aerodrome Forecast
Issued by NWS Charleston, SC

Home | Current Version | Previous Version | Text Only | Print | Product List | Glossary On
Versions: 1 2 3 4 5 6 7 8 9 10 11 12 13 14 15
000
FTUS42 KCHS 221720
TAFCHS
TAF
KCHS 221720Z 2218/2318 12012KT P6SM BKN060
     FM222300 06005KT P6SM BKN200
     FM230900 03004KT P6SM SCT025
     FM231400 06007KT P6SM BKN040=

USA.gov is the U.S. government's official web portal to all federal, state and local government web resources and services.